sensor_id;sensor_type;location;lat;lon;timestamp;temperature;humidity
65582;DHT22;52231;40.090;18.348;2022-12-24T00:01:58;6.40;89.80
65582;DHT22;52231;40.090;18.348;2022-12-24T00:04:27;6.40;89.80
65582;DHT22;52231;40.090;18.348;2022-12-24T00:06:55;6.40;89.70
65582;DHT22;52231;40.090;18.348;2022-12-24T00:09:23;6.30;89.50
65582;DHT22;52231;40.090;18.348;2022-12-24T00:11:52;6.20;89.50
65582;DHT22;52231;40.090;18.348;2022-12-24T00:14:20;6.20;89.40
65582;DHT22;52231;40.090;18.348;2022-12-24T00:16:48;6.00;89.20
65582;DHT22;52231;40.090;18.348;2022-12-24T00:19:16;5.90;89.10
65582;DHT22;52231;40.090;18.348;2022-12-24T00:21:45;5.90;89.10
65582;DHT22;52231;40.090;18.348;2022-12-24T00:24:13;5.80;89.20
65582;DHT22;52231;40.090;18.348;2022-12-24T00:26:41;5.80;89.30
65582;DHT22;52231;40.090;18.348;2022-12-24T00:29:11;5.80;89.50
65582;DHT22;52231;40.090;18.348;2022-12-24T00:31:39;5.80;89.60
65582;DHT22;52231;40.090;18.348;2022-12-24T00:34:07;5.80;89.80
65582;DHT22;52231;40.090;18.348;2022-12-24T00:36:54;5.80;89.90
65582;DHT22;52231;40.090;18.348;2022-12-24T00:39:22;5.80;89.80
65582;DHT22;52231;40.090;18.348;2022-12-24T00:41:50;5.80;89.80
65582;DHT22;52231;40.090;18.348;2022-12-24T00:44:18;5.80;89.90
65582;DHT22;52231;40.090;18.348;2022-12-24T00:46:46;5.80;89.90
65582;DHT22;52231;40.090;18.348;2022-12-24T00:49:17;5.80;90.00
65582;DHT22;52231;40.090;18.348;2022-12-24T00:51:45;5.80;90.00
65582;DHT22;52231;40.090;18.348;2022-12-24T00:54:13;5.80;90.10
65582;DHT22;52231;40.090;18.348;2022-12-24T00:56:48;5.70;90.10
65582;DHT22;52231;40.090;18.348;2022-12-24T01:02:28;5.70;90.30
65582;DHT22;52231;40.090;18.348;2022-12-24T01:04:56;5.60;90.40
65582;DHT22;52231;40.090;18.348;2022-12-24T01:07:45;5.60;90.40
65582;DHT22;52231;40.090;18.348;2022-12-24T01:10:20;5.60;90.50
65582;DHT22;52231;40.090;18.348;2022-12-24T01:13:02;5.60;90.50
65582;DHT22;52231;40.090;18.348;2022-12-24T01:15:30;5.60;90.50
65582;DHT22;52231;40.090;18.348;2022-12-24T01:17:58;5.60;90.50
65582;DHT22;52231;40.090;18.348;2022-12-24T01:20:26;5.70;90.60
65582;DHT22;52231;40.090;18.348;2022-12-24T01:22:58;5.70;90.60
65582;DHT22;52231;40.090;18.348;2022-12-24T01:25:27;5.80;90.70
65582;DHT22;52231;40.090;18.348;2022-12-24T01:27:55;5.80;90.70
65582;DHT22;52231;40.090;18.348;2022-12-24T01:30:23;5.80;90.70
65582;DHT22;52231;40.090;18.348;2022-12-24T01:32:51;5.80;90.70
65582;DHT22;52231;40.090;18.348;2022-12-24T01:35:19;5.80;90.70
65582;DHT22;52231;40.090;18.348;2022-12-24T01:41:06;5.80;90.60
65582;DHT22;52231;40.090;18.348;2022-12-24T01:43:53;5.70;90.60
65582;DHT22;52231;40.090;18.348;2022-12-24T01:46:27;5.60;90.50
65582;DHT22;52231;40.090;18.348;2022-12-24T01:48:59;5.50;90.30
65582;DHT22;52231;40.090;18.348;2022-12-24T01:51:34;5.40;90.30
65582;DHT22;52231;40.090;18.348;2022-12-24T01:56:32;5.40;90.40
65582;DHT22;52231;40.090;18.348;2022-12-24T01:59:04;5.40;90.40
65582;DHT22;52231;40.090;18.348;2022-12-24T02:01:33;5.40;90.50
65582;DHT22;52231;40.090;18.348;2022-12-24T02:04:16;5.50;90.70
65582;DHT22;52231;40.090;18.348;2022-12-24T02:06:46;5.50;90.70
65582;DHT22;52231;40.090;18.348;2022-12-24T02:09:15;5.60;90.80
65582;DHT22;52231;40.090;18.348;2022-12-24T02:11:46;5.60;90.90
65582;DHT22;52231;40.090;18.348;2022-12-24T02:24:51;5.60;90.80
65582;DHT22;52231;40.090;18.348;2022-12-24T02:30:53;5.40;90.80
65582;DHT22;52231;40.090;18.348;2022-12-24T02:33:29;5.30;90.80
65582;DHT22;52231;40.090;18.348;2022-12-24T02:36:12;5.30;90.90
65582;DHT22;52231;40.090;18.348;2022-12-24T02:39:04;5.30;91.00
65582;DHT22;52231;40.090;18.348;2022-12-24T02:41:41;5.30;91.00
65582;DHT22;52231;40.090;18.348;2022-12-24T02:44:31;5.30;91.00
65582;DHT22;52231;40.090;18.348;2022-12-24T02:47:02;5.30;91.10
65582;DHT22;52231;40.090;18.348;2022-12-24T02:49:34;5.30;91.10
65582;DHT22;52231;40.090;18.348;2022-12-24T02:52:03;5.30;91.20
65582;DHT22;52231;40.090;18.348;2022-12-24T02:54:32;5.30;91.20
65582;DHT22;52231;40.090;18.348;2022-12-24T02:57:12;5.30;91.30
65582;DHT22;52231;40.090;18.348;2022-12-24T03:00:04;5.40;91.30
65582;DHT22;52231;40.090;18.348;2022-12-24T03:03:05;5.40;91.40
65582;DHT22;52231;40.090;18.348;2022-12-24T03:11:13;5.30;91.30
65582;DHT22;52231;40.090;18.348;2022-12-24T03:14:02;5.30;91.20
65582;DHT22;52231;40.090;18.348;2022-12-24T03:16:30;5.20;91.10
65582;DHT22;52231;40.090;18.348;2022-12-24T03:19:00;5.20;91.10
65582;DHT22;52231;40.090;18.348;2022-12-24T03:21:31;5.20;91.10
65582;DHT22;52231;40.090;18.348;2022-12-24T03:24:00;5.20;91.10
65582;DHT22;52231;40.090;18.348;2022-12-24T03:26:54;5.20;91.00
65582;DHT22;52231;40.090;18.348;2022-12-24T03:29:23;5.10;91.10
65582;DHT22;52231;40.090;18.348;2022-12-24T03:31:52;5.10;91.10
65582;DHT22;52231;40.090;18.348;2022-12-24T03:34:26;5.10;91.20
65582;DHT22;52231;40.090;18.348;2022-12-24T03:36:54;5.10;91.20
65582;DHT22;52231;40.090;18.348;2022-12-24T03:39:22;5.10;91.30
65582;DHT22;52231;40.090;18.348;2022-12-24T03:41:51;5.20;91.30
65582;DHT22;52231;40.090;18.348;2022-12-24T03:44:19;5.30;91.40
65582;DHT22;52231;40.090;18.348;2022-12-24T03:46:47;5.30;91.40
65582;DHT22;52231;40.090;18.348;2022-12-24T03:49:16;5.30;91.40
65582;DHT22;52231;40.090;18.348;2022-12-24T03:51:44;5.30;91.40
65582;DHT22;52231;40.090;18.348;2022-12-24T03:54:14;5.20;91.40
65582;DHT22;52231;40.090;18.348;2022-12-24T03:56:45;5.20;91.40
65582;DHT22;52231;40.090;18.348;2022-12-24T03:59:13;5.20;91.50
65582;DHT22;52231;40.090;18.348;2022-12-24T04:01:41;5.20;91.50
65582;DHT22;52231;40.090;18.348;2022-12-24T04:04:12;5.10;91.50
65582;DHT22;52231;40.090;18.348;2022-12-24T04:06:40;5.10;91.50
65582;DHT22;52231;40.090;18.348;2022-12-24T04:09:08;5.00;91.50
65582;DHT22;52231;40.090;18.348;2022-12-24T04:11:36;5.00;91.50
65582;DHT22;52231;40.090;18.348;2022-12-24T04:14:30;4.80;91.40
65582;DHT22;52231;40.090;18.348;2022-12-24T04:17:00;4.80;91.50
65582;DHT22;52231;40.090;18.348;2022-12-24T04:19:37;4.80;91.50
65582;DHT22;52231;40.090;18.348;2022-12-24T04:22:05;4.90;91.50
65582;DHT22;52231;40.090;18.348;2022-12-24T04:24:33;4.80;91.50
65582;DHT22;52231;40.090;18.348;2022-12-24T04:27:01;4.80;91.60
65582;DHT22;52231;40.090;18.348;2022-12-24T04:29:29;4.80;91.60
65582;DHT22;52231;40.090;18.348;2022-12-24T04:31:57;4.80;91.60
65582;DHT22;52231;40.090;18.348;2022-12-24T04:34:26;4.80;91.60
65582;DHT22;52231;40.090;18.348;2022-12-24T04:36:54;4.70;91.60
65582;DHT22;52231;40.090;18.348;2022-12-24T04:39:22;4.70;91.60
65582;DHT22;52231;40.090;18.348;2022-12-24T04:45:11;4.40;91.40
65582;DHT22;52231;40.090;18.348;2022-12-24T04:47:39;4.40;91.40
65582;DHT22;52231;40.090;18.348;2022-12-24T04:50:09;4.30;91.30
65582;DHT22;52231;40.090;18.348;2022-12-24T04:52:37;4.30;91.30
65582;DHT22;52231;40.090;18.348;2022-12-24T04:55:05;4.30;91.30
65582;DHT22;52231;40.090;18.348;2022-12-24T04:57:34;4.30;91.40
65582;DHT22;52231;40.090;18.348;2022-12-24T05:00:05;4.30;91.40
65582;DHT22;52231;40.090;18.348;2022-12-24T05:02:52;4.30;91.40
65582;DHT22;52231;40.090;18.348;2022-12-24T05:05:20;4.30;91.40
65582;DHT22;52231;40.090;18.348;2022-12-24T05:08:03;4.30;91.50
65582;DHT22;52231;40.090;18.348;2022-12-24T05:10:32;4.30;91.50
65582;DHT22;52231;40.090;18.348;2022-12-24T05:13:00;4.30;91.60
65582;DHT22;52231;40.090;18.348;2022-12-24T05:15:28;4.30;91.60
65582;DHT22;52231;40.090;18.348;2022-12-24T05:17:56;4.40;91.60
65582;DHT22;52231;40.090;18.348;2022-12-24T05:20:25;4.40;91.70
65582;DHT22;52231;40.090;18.348;2022-12-24T05:22:53;4.50;91.70
65582;DHT22;52231;40.090;18.348;2022-12-24T05:25:40;4.50;91.70
65582;DHT22;52231;40.090;18.348;2022-12-24T05:28:26;4.40;91.80
65582;DHT22;52231;40.090;18.348;2022-12-24T05:30:54;4.50;91.70
65582;DHT22;52231;40.090;18.348;2022-12-24T05:33:22;4.40;91.70
65582;DHT22;52231;40.090;18.348;2022-12-24T05:35:51;4.40;91.70
65582;DHT22;52231;40.090;18.348;2022-12-24T05:38:20;4.40;91.70
65582;DHT22;52231;40.090;18.348;2022-12-24T05:40:48;4.30;91.60
65582;DHT22;52231;40.090;18.348;2022-12-24T05:43:17;4.40;91.60
65582;DHT22;52231;40.090;18.348;2022-12-24T05:45:45;4.30;91.60
65582;DHT22;52231;40.090;18.348;2022-12-24T05:48:13;4.20;91.50
65582;DHT22;52231;40.090;18.348;2022-12-24T05:50:41;4.20;91.40
65582;DHT22;52231;40.090;18.348;2022-12-24T05:53:09;4.10;91.30
65582;DHT22;52231;40.090;18.348;2022-12-24T05:55:37;4.00;91.20
65582;DHT22;52231;40.090;18.348;2022-12-24T05:58:05;4.00;91.20
65582;DHT22;52231;40.090;18.348;2022-12-24T06:00:34;4.00;91.20
65582;DHT22;52231;40.090;18.348;2022-12-24T06:03:02;4.00;91.20
65582;DHT22;52231;40.090;18.348;2022-12-24T06:05:30;4.00;91.30
65582;DHT22;52231;40.090;18.348;2022-12-24T06:07:58;4.10;91.40
65582;DHT22;52231;40.090;18.348;2022-12-24T06:10:26;4.20;91.40
65582;DHT22;52231;40.090;18.348;2022-12-24T06:12:54;4.20;91.50
65582;DHT22;52231;40.090;18.348;2022-12-24T06:15:22;4.30;91.50
65582;DHT22;52231;40.090;18.348;2022-12-24T06:17:50;4.30;91.50
65582;DHT22;52231;40.090;18.348;2022-12-24T06:20:18;4.40;91.50
65582;DHT22;52231;40.090;18.348;2022-12-24T06:22:47;4.40;91.50
65582;DHT22;52231;40.090;18.348;2022-12-24T06:25:15;4.50;91.60
65582;DHT22;52231;40.090;18.348;2022-12-24T06:27:43;4.60;91.60
65582;DHT22;52231;40.090;18.348;2022-12-24T06:30:11;4.70;91.60
65582;DHT22;52231;40.090;18.348;2022-12-24T06:32:39;4.70;91.60
65582;DHT22;52231;40.090;18.348;2022-12-24T06:35:07;4.80;91.60
65582;DHT22;52231;40.090;18.348;2022-12-24T06:37:36;4.90;91.70
65582;DHT22;52231;40.090;18.348;2022-12-24T06:40:04;5.00;91.70
65582;DHT22;52231;40.090;18.348;2022-12-24T06:42:33;5.20;91.70
65582;DHT22;52231;40.090;18.348;2022-12-24T06:45:01;5.30;91.70
65582;DHT22;52231;40.090;18.348;2022-12-24T06:47:34;5.50;91.70
65582;DHT22;52231;40.090;18.348;2022-12-24T06:50:03;5.70;91.70
65582;DHT22;52231;40.090;18.348;2022-12-24T06:52:33;5.90;91.70
65582;DHT22;52231;40.090;18.348;2022-12-24T06:55:01;6.20;91.70
65582;DHT22;52231;40.090;18.348;2022-12-24T06:57:29;6.40;91.70
65582;DHT22;52231;40.090;18.348;2022-12-24T07:00:01;6.60;91.70
65582;DHT22;52231;40.090;18.348;2022-12-24T07:02:29;6.80;91.60
65582;DHT22;52231;40.090;18.348;2022-12-24T07:04:57;6.90;91.50
65582;DHT22;52231;40.090;18.348;2022-12-24T07:07:25;7.00;91.30
65582;DHT22;52231;40.090;18.348;2022-12-24T07:09:56;7.30;91.20
65582;DHT22;52231;40.090;18.348;2022-12-24T07:13:17;7.70;91.10
65582;DHT22;52231;40.090;18.348;2022-12-24T07:15:46;7.90;90.50
65582;DHT22;52231;40.090;18.348;2022-12-24T07:18:14;8.20;90.00
65582;DHT22;52231;40.090;18.348;2022-12-24T07:20:42;8.50;89.60
65582;DHT22;52231;40.090;18.348;2022-12-24T07:23:10;8.80;89.10
65582;DHT22;52231;40.090;18.348;2022-12-24T07:25:41;9.10;88.50
65582;DHT22;52231;40.090;18.348;2022-12-24T07:28:09;9.40;87.50
65582;DHT22;52231;40.090;18.348;2022-12-24T07:30:37;9.70;86.70
65582;DHT22;52231;40.090;18.348;2022-12-24T07:33:06;10.10;85.80
65582;DHT22;52231;40.090;18.348;2022-12-24T07:35:35;10.30;84.70
65582;DHT22;52231;40.090;18.348;2022-12-24T07:46:25;11.30;81.80
65582;DHT22;52231;40.090;18.348;2022-12-24T07:48:54;11.80;80.80
65582;DHT22;52231;40.090;18.348;2022-12-24T07:55:19;11.80;78.80
65582;DHT22;52231;40.090;18.348;2022-12-24T07:58:41;11.80;78.90
65582;DHT22;52231;40.090;18.348;2022-12-24T08:01:14;12.10;78.60
65582;DHT22;52231;40.090;18.348;2022-12-24T08:03:43;12.20;77.80
65582;DHT22;52231;40.090;18.348;2022-12-24T08:06:21;12.30;78.00
65582;DHT22;52231;40.090;18.348;2022-12-24T08:08:56;12.40;77.30
65582;DHT22;52231;40.090;18.348;2022-12-24T08:11:30;12.60;76.80
65582;DHT22;52231;40.090;18.348;2022-12-24T08:15:31;12.80;75.50
65582;DHT22;52231;40.090;18.348;2022-12-24T08:17:59;13.10;76.00
65582;DHT22;52231;40.090;18.348;2022-12-24T08:20:27;13.00;76.10
65582;DHT22;52231;40.090;18.348;2022-12-24T08:22:56;13.00;76.30
65582;DHT22;52231;40.090;18.348;2022-12-24T08:25:24;12.90;76.00
65582;DHT22;52231;40.090;18.348;2022-12-24T08:27:52;12.80;76.90
65582;DHT22;52231;40.090;18.348;2022-12-24T08:30:20;13.10;76.90
65582;DHT22;52231;40.090;18.348;2022-12-24T08:32:48;13.40;76.50
65582;DHT22;52231;40.090;18.348;2022-12-24T08:35:17;13.70;74.50
65582;DHT22;52231;40.090;18.348;2022-12-24T08:37:45;13.80;73.90
65582;DHT22;52231;40.090;18.348;2022-12-24T08:40:13;13.80;73.80
65582;DHT22;52231;40.090;18.348;2022-12-24T08:42:42;14.10;74.10
65582;DHT22;52231;40.090;18.348;2022-12-24T08:45:11;14.20;74.10
65582;DHT22;52231;40.090;18.348;2022-12-24T08:47:40;14.30;74.30
65582;DHT22;52231;40.090;18.348;2022-12-24T08:50:08;14.40;74.50
65582;DHT22;52231;40.090;18.348;2022-12-24T08:52:37;14.60;74.80
65582;DHT22;52231;40.090;18.348;2022-12-24T08:55:05;14.80;74.20
65582;DHT22;52231;40.090;18.348;2022-12-24T08:57:35;14.80;74.30
65582;DHT22;52231;40.090;18.348;2022-12-24T09:00:04;14.90;74.60
65582;DHT22;52231;40.090;18.348;2022-12-24T09:02:33;15.20;74.90
65582;DHT22;52231;40.090;18.348;2022-12-24T09:05:02;15.40;74.20
65582;DHT22;52231;40.090;18.348;2022-12-24T09:07:30;15.70;73.90
65582;DHT22;52231;40.090;18.348;2022-12-24T09:09:59;15.90;74.10
65582;DHT22;52231;40.090;18.348;2022-12-24T09:12:27;16.10;73.50
65582;DHT22;52231;40.090;18.348;2022-12-24T09:14:56;16.30;73.10
65582;DHT22;52231;40.090;18.348;2022-12-24T09:17:28;16.50;73.10
65582;DHT22;52231;40.090;18.348;2022-12-24T09:19:56;16.70;72.90
65582;DHT22;52231;40.090;18.348;2022-12-24T09:22:24;16.80;72.40
65582;DHT22;52231;40.090;18.348;2022-12-24T09:24:53;17.00;71.60
65582;DHT22;52231;40.090;18.348;2022-12-24T09:27:21;17.30;71.10
65582;DHT22;52231;40.090;18.348;2022-12-24T09:29:50;17.40;70.80
65582;DHT22;52231;40.090;18.348;2022-12-24T09:32:18;17.60;70.80
65582;DHT22;52231;40.090;18.348;2022-12-24T09:34:46;17.90;70.70
65582;DHT22;52231;40.090;18.348;2022-12-24T09:37:14;18.10;70.50
65582;DHT22;52231;40.090;18.348;2022-12-24T09:39:43;18.30;70.30
65582;DHT22;52231;40.090;18.348;2022-12-24T09:42:49;18.30;69.60
65582;DHT22;52231;40.090;18.348;2022-12-24T09:45:39;18.30;69.70
65582;DHT22;52231;40.090;18.348;2022-12-24T09:48:20;18.20;70.20
65582;DHT22;52231;40.090;18.348;2022-12-24T09:56:27;18.40;69.70
65582;DHT22;52231;40.090;18.348;2022-12-24T09:59:02;18.30;70.00
65582;DHT22;52231;40.090;18.348;2022-12-24T10:01:50;18.40;69.90
65582;DHT22;52231;40.090;18.348;2022-12-24T10:04:22;18.30;69.80
65582;DHT22;52231;40.090;18.348;2022-12-24T10:12:50;18.20;70.80
65582;DHT22;52231;40.090;18.348;2022-12-24T10:15:55;18.00;71.00
65582;DHT22;52231;40.090;18.348;2022-12-24T10:18:41;17.90;71.50
65582;DHT22;52231;40.090;18.348;2022-12-24T10:24:18;18.40;71.10
65582;DHT22;52231;40.090;18.348;2022-12-24T10:29:19;18.50;69.90
65582;DHT22;52231;40.090;18.348;2022-12-24T10:31:57;18.30;70.50
65582;DHT22;52231;40.090;18.348;2022-12-24T10:37:24;17.80;71.40
65582;DHT22;52231;40.090;18.348;2022-12-24T10:39:54;17.50;72.20
65582;DHT22;52231;40.090;18.348;2022-12-24T10:42:31;17.30;72.70
65582;DHT22;52231;40.090;18.348;2022-12-24T10:45:03;17.30;73.50
65582;DHT22;52231;40.090;18.348;2022-12-24T10:47:37;17.40;73.50
65582;DHT22;52231;40.090;18.348;2022-12-24T10:50:31;17.60;72.20
65582;DHT22;52231;40.090;18.348;2022-12-24T10:54:15;17.80;71.80
65582;DHT22;52231;40.090;18.348;2022-12-24T10:56:14;17.80;71.20
65582;DHT22;52231;40.090;18.348;2022-12-24T10:58:50;17.40;71.60
65582;DHT22;52231;40.090;18.348;2022-12-24T11:01:45;17.20;72.10
65582;DHT22;52231;40.090;18.348;2022-12-24T11:04:21;17.00;72.80
65582;DHT22;52231;40.090;18.348;2022-12-24T11:07:18;17.00;73.00
65582;DHT22;52231;40.090;18.348;2022-12-24T11:09:58;17.10;73.20
65582;DHT22;52231;40.090;18.348;2022-12-24T11:12:36;17.30;72.70
65582;DHT22;52231;40.090;18.348;2022-12-24T11:17:56;17.70;72.00
65582;DHT22;52231;40.090;18.348;2022-12-24T11:20:27;17.90;71.50
65582;DHT22;52231;40.090;18.348;2022-12-24T11:23:15;18.20;70.90
65582;DHT22;52231;40.090;18.348;2022-12-24T11:25:49;18.40;70.00
65582;DHT22;52231;40.090;18.348;2022-12-24T11:28:36;18.70;69.10
65582;DHT22;52231;40.090;18.348;2022-12-24T11:31:18;18.50;68.60
65582;DHT22;52231;40.090;18.348;2022-12-24T11:33:51;18.50;68.80
65582;DHT22;52231;40.090;18.348;2022-12-24T11:36:29;18.80;68.30
65582;DHT22;52231;40.090;18.348;2022-12-24T11:39:38;19.20;67.10
65582;DHT22;52231;40.090;18.348;2022-12-24T11:42:33;19.40;65.70
65582;DHT22;52231;40.090;18.348;2022-12-24T11:47:50;19.40;65.50
65582;DHT22;52231;40.090;18.348;2022-12-24T11:50:33;19.30;65.20
65582;DHT22;52231;40.090;18.348;2022-12-24T11:53:18;19.50;65.40
65582;DHT22;52231;40.090;18.348;2022-12-24T11:55:55;19.60;65.30
65582;DHT22;52231;40.090;18.348;2022-12-24T12:01:27;19.80;64.10
65582;DHT22;52231;40.090;18.348;2022-12-24T12:04:26;19.90;64.20
65582;DHT22;52231;40.090;18.348;2022-12-24T12:07:09;19.80;64.10
65582;DHT22;52231;40.090;18.348;2022-12-24T12:10:36;19.60;64.30
65582;DHT22;52231;40.090;18.348;2022-12-24T12:12:45;19.10;64.90
65582;DHT22;52231;40.090;18.348;2022-12-24T12:15:18;19.00;66.50
65582;DHT22;52231;40.090;18.348;2022-12-24T12:20:29;19.20;66.10
65582;DHT22;52231;40.090;18.348;2022-12-24T12:25:56;19.60;64.60
65582;DHT22;52231;40.090;18.348;2022-12-24T12:28:35;19.80;64.60
65582;DHT22;52231;40.090;18.348;2022-12-24T12:34:35;19.40;65.10
65582;DHT22;52231;40.090;18.348;2022-12-24T12:39:41;18.80;65.80
65582;DHT22;52231;40.090;18.348;2022-12-24T12:42:33;18.60;66.50
65582;DHT22;52231;40.090;18.348;2022-12-24T12:50:44;18.20;67.40
65582;DHT22;52231;40.090;18.348;2022-12-24T12:54:07;18.00;67.90
65582;DHT22;52231;40.090;18.348;2022-12-24T12:56:33;17.80;68.20
65582;DHT22;52231;40.090;18.348;2022-12-24T12:59:17;17.60;69.20
65582;DHT22;52231;40.090;18.348;2022-12-24T13:07:25;17.70;70.60
65582;DHT22;52231;40.090;18.348;2022-12-24T13:15:38;18.20;68.70
65582;DHT22;52231;40.090;18.348;2022-12-24T13:21:25;18.20;68.70
65582;DHT22;52231;40.090;18.348;2022-12-24T13:24:24;18.30;68.60
65582;DHT22;52231;40.090;18.348;2022-12-24T13:27:10;18.40;67.50
65582;DHT22;52231;40.090;18.348;2022-12-24T13:32:38;18.40;67.00
65582;DHT22;52231;40.090;18.348;2022-12-24T13:37:48;18.50;67.30
65582;DHT22;52231;40.090;18.348;2022-12-24T13:40:24;18.40;67.10
65582;DHT22;52231;40.090;18.348;2022-12-24T13:47:56;18.30;67.80
65582;DHT22;52231;40.090;18.348;2022-12-24T13:56:19;18.30;67.90
65582;DHT22;52231;40.090;18.348;2022-12-24T13:58:51;18.10;67.70
65582;DHT22;52231;40.090;18.348;2022-12-24T14:01:41;18.00;68.10
65582;DHT22;52231;40.090;18.348;2022-12-24T14:04:25;17.90;68.20
65582;DHT22;52231;40.090;18.348;2022-12-24T14:06:57;17.80;68.50
65582;DHT22;52231;40.090;18.348;2022-12-24T14:09:27;17.70;68.70
65582;DHT22;52231;40.090;18.348;2022-12-24T14:19:46;17.40;69.30
65582;DHT22;52231;40.090;18.348;2022-12-24T14:24:56;17.20;69.90
65582;DHT22;52231;40.090;18.348;2022-12-24T14:30:22;16.90;70.80
65582;DHT22;52231;40.090;18.348;2022-12-24T14:32:51;16.70;71.30
65582;DHT22;52231;40.090;18.348;2022-12-24T14:35:39;16.60;71.90
65582;DHT22;52231;40.090;18.348;2022-12-24T14:38:15;16.40;72.40
65582;DHT22;52231;40.090;18.348;2022-12-24T14:43:27;16.20;73.40
65582;DHT22;52231;40.090;18.348;2022-12-24T14:49:09;16.00;74.10
65582;DHT22;52231;40.090;18.348;2022-12-24T14:54:39;15.70;75.10
65582;DHT22;52231;40.090;18.348;2022-12-24T15:10:44;15.20;77.30
65582;DHT22;52231;40.090;18.348;2022-12-24T15:13:37;15.00;77.90
65582;DHT22;52231;40.090;18.348;2022-12-24T15:16:13;14.90;78.30
65582;DHT22;52231;40.090;18.348;2022-12-24T15:18:45;14.70;79.10
65582;DHT22;52231;40.090;18.348;2022-12-24T15:21:37;14.60;80.10
65582;DHT22;52231;40.090;18.348;2022-12-24T15:24:28;14.40;80.60
65582;DHT22;52231;40.090;18.348;2022-12-24T15:26:58;14.30;81.20
65582;DHT22;52231;40.090;18.348;2022-12-24T15:29:29;14.10;81.70
65582;DHT22;52231;40.090;18.348;2022-12-24T15:32:01;14.00;82.20
65582;DHT22;52231;40.090;18.348;2022-12-24T15:34:38;14.00;82.70
65582;DHT22;52231;40.090;18.348;2022-12-24T15:40:00;13.90;83.70
65582;DHT22;52231;40.090;18.348;2022-12-24T15:42:32;13.80;83.80
65582;DHT22;52231;40.090;18.348;2022-12-24T15:47:40;13.80;84.20
65582;DHT22;52231;40.090;18.348;2022-12-24T15:50:32;13.80;84.30
65582;DHT22;52231;40.090;18.348;2022-12-24T15:53:06;13.70;84.40
65582;DHT22;52231;40.090;18.348;2022-12-24T15:58:16;13.50;84.90
65582;DHT22;52231;40.090;18.348;2022-12-24T16:03:35;13.30;85.10
65582;DHT22;52231;40.090;18.348;2022-12-24T16:06:24;13.20;85.40
65582;DHT22;52231;40.090;18.348;2022-12-24T16:08:52;13.10;85.90
65582;DHT22;52231;40.090;18.348;2022-12-24T16:11:34;13.00;86.00
65582;DHT22;52231;40.090;18.348;2022-12-24T16:14:16;12.90;86.20
65582;DHT22;52231;40.090;18.348;2022-12-24T16:16:48;12.80;86.40
65582;DHT22;52231;40.090;18.348;2022-12-24T16:19:26;12.70;86.40
65582;DHT22;52231;40.090;18.348;2022-12-24T16:21:59;12.60;86.30
65582;DHT22;52231;40.090;18.348;2022-12-24T16:24:48;12.50;86.40
65582;DHT22;52231;40.090;18.348;2022-12-24T16:27:18;12.30;86.50
65582;DHT22;52231;40.090;18.348;2022-12-24T16:29:47;12.30;86.70
65582;DHT22;52231;40.090;18.348;2022-12-24T16:32:33;12.20;86.70
65582;DHT22;52231;40.090;18.348;2022-12-24T16:35:04;12.10;87.00
65582;DHT22;52231;40.090;18.348;2022-12-24T16:37:33;12.10;87.00
65582;DHT22;52231;40.090;18.348;2022-12-24T16:40:01;12.00;86.90
65582;DHT22;52231;40.090;18.348;2022-12-24T16:42:29;11.90;87.00
65582;DHT22;52231;40.090;18.348;2022-12-24T16:45:16;11.80;87.00
65582;DHT22;52231;40.090;18.348;2022-12-24T16:47:44;11.80;87.10
65582;DHT22;52231;40.090;18.348;2022-12-24T16:50:16;11.70;87.30
65582;DHT22;52231;40.090;18.348;2022-12-24T16:52:44;11.60;87.40
65582;DHT22;52231;40.090;18.348;2022-12-24T16:55:13;11.60;87.60
65582;DHT22;52231;40.090;18.348;2022-12-24T16:57:42;11.60;87.80
65582;DHT22;52231;40.090;18.348;2022-12-24T17:00:16;11.70;88.00
65582;DHT22;52231;40.090;18.348;2022-12-24T17:02:46;11.70;88.30
65582;DHT22;52231;40.090;18.348;2022-12-24T17:05:15;11.70;88.40
65582;DHT22;52231;40.090;18.348;2022-12-24T17:07:43;11.70;88.40
65582;DHT22;52231;40.090;18.348;2022-12-24T17:10:12;11.70;88.40
65582;DHT22;52231;40.090;18.348;2022-12-24T17:12:41;11.70;88.30
65582;DHT22;52231;40.090;18.348;2022-12-24T17:15:09;11.60;88.40
65582;DHT22;52231;40.090;18.348;2022-12-24T17:17:39;11.60;88.30
65582;DHT22;52231;40.090;18.348;2022-12-24T17:20:08;11.50;88.40
65582;DHT22;52231;40.090;18.348;2022-12-24T17:22:37;11.40;88.40
65582;DHT22;52231;40.090;18.348;2022-12-24T17:25:05;11.40;88.50
65582;DHT22;52231;40.090;18.348;2022-12-24T17:27:33;11.30;88.40
65582;DHT22;52231;40.090;18.348;2022-12-24T17:30:02;11.30;88.40
65582;DHT22;52231;40.090;18.348;2022-12-24T17:32:31;11.20;88.20
65582;DHT22;52231;40.090;18.348;2022-12-24T17:34:59;11.00;88.10
65582;DHT22;52231;40.090;18.348;2022-12-24T17:37:29;11.00;88.10
65582;DHT22;52231;40.090;18.348;2022-12-24T17:39:57;10.90;88.10
65582;DHT22;52231;40.090;18.348;2022-12-24T17:42:26;10.80;88.00
65582;DHT22;52231;40.090;18.348;2022-12-24T17:44:54;10.80;88.00
65582;DHT22;52231;40.090;18.348;2022-12-24T17:47:22;10.80;88.10
65582;DHT22;52231;40.090;18.348;2022-12-24T17:49:50;10.70;88.20
65582;DHT22;52231;40.090;18.348;2022-12-24T17:52:19;10.60;88.10
65582;DHT22;52231;40.090;18.348;2022-12-24T17:54:47;10.60;88.20
65582;DHT22;52231;40.090;18.348;2022-12-24T17:57:15;10.60;88.30
65582;DHT22;52231;40.090;18.348;2022-12-24T17:59:43;10.60;88.50
65582;DHT22;52231;40.090;18.348;2022-12-24T18:02:11;10.60;88.60
65582;DHT22;52231;40.090;18.348;2022-12-24T18:04:39;10.70;88.80
65582;DHT22;52231;40.090;18.348;2022-12-24T18:07:07;10.70;88.80
65582;DHT22;52231;40.090;18.348;2022-12-24T18:09:36;10.70;89.00
65582;DHT22;52231;40.090;18.348;2022-12-24T18:12:04;10.70;89.10
65582;DHT22;52231;40.090;18.348;2022-12-24T18:14:32;10.70;89.20
65582;DHT22;52231;40.090;18.348;2022-12-24T18:17:02;10.80;89.20
65582;DHT22;52231;40.090;18.348;2022-12-24T18:19:33;10.80;89.20
65582;DHT22;52231;40.090;18.348;2022-12-24T18:22:01;10.70;89.20
65582;DHT22;52231;40.090;18.348;2022-12-24T18:24:29;10.70;89.20
65582;DHT22;52231;40.090;18.348;2022-12-24T18:26:57;10.70;89.30
65582;DHT22;52231;40.090;18.348;2022-12-24T18:29:26;10.70;89.30
65582;DHT22;52231;40.090;18.348;2022-12-24T18:31:54;10.70;89.30
65582;DHT22;52231;40.090;18.348;2022-12-24T18:34:22;10.60;89.30
65582;DHT22;52231;40.090;18.348;2022-12-24T18:36:51;10.60;89.20
65582;DHT22;52231;40.090;18.348;2022-12-24T18:39:21;10.50;89.10
65582;DHT22;52231;40.090;18.348;2022-12-24T18:41:50;10.40;89.10
65582;DHT22;52231;40.090;18.348;2022-12-24T18:44:18;10.40;89.10
65582;DHT22;52231;40.090;18.348;2022-12-24T18:46:51;10.30;89.10
65582;DHT22;52231;40.090;18.348;2022-12-24T18:49:19;10.30;89.10